sensor_id;sensor_type;location;lat;lon;timestamp;P1;durP1;ratioP1;P2;durP2;ratioP2
52316;SDS011;38725;41.994;21.458;2022-10-17T00:00:25;43.13;;;22.42;;
52316;SDS011;38725;41.994;21.458;2022-10-17T00:02:53;43.45;;;22.15;;
52316;SDS011;38725;41.994;21.458;2022-10-17T00:05:19;36.38;;;21.00;;
52316;SDS011;38725;41.994;21.458;2022-10-17T00:07:45;43.90;;;20.90;;
52316;SDS011;38725;41.994;21.458;2022-10-17T00:10:11;39.05;;;20.15;;
52316;SDS011;38725;41.994;21.458;2022-10-17T00:12:38;35.80;;;19.52;;
52316;SDS011;38725;41.994;21.458;2022-10-17T00:15:05;36.15;;;20.60;;
52316;SDS011;38725;41.994;21.458;2022-10-17T00:17:32;37.95;;;20.48;;
52316;SDS011;38725;41.994;21.458;2022-10-17T00:19:58;36.40;;;20.88;;
52316;SDS011;38725;41.994;21.458;2022-10-17T00:22:24;48.83;;;24.35;;
52316;SDS011;38725;41.994;21.458;2022-10-17T00:24:50;46.25;;;24.85;;
52316;SDS011;38725;41.994;21.458;2022-10-17T00:27:17;43.03;;;23.75;;
52316;SDS011;38725;41.994;21.458;2022-10-17T00:29:46;43.63;;;23.48;;
52316;SDS011;38725;41.994;21.458;2022-10-17T00:32:12;41.13;;;23.95;;
52316;SDS011;38725;41.994;21.458;2022-10-17T00:34:38;45.10;;;23.45;;
52316;SDS011;38725;41.994;21.458;2022-10-17T00:37:04;44.05;;;24.80;;
52316;SDS011;38725;41.994;21.458;2022-10-17T00:39:30;41.47;;;23.30;;
52316;SDS011;38725;41.994;21.458;2022-10-17T00:41:56;46.20;;;24.67;;
52316;SDS011;38725;41.994;21.458;2022-10-17T00:47:05;44.17;;;23.88;;
52316;SDS011;38725;41.994;21.458;2022-10-17T00:49:33;38.03;;;21.55;;
52316;SDS011;38725;41.994;21.458;2022-10-17T00:52:01;45.15;;;23.15;;
52316;SDS011;38725;41.994;21.458;2022-10-17T00:54:29;49.70;;;24.38;;
52316;SDS011;38725;41.994;21.458;2022-10-17T00:56:56;42.10;;;23.80;;
52316;SDS011;38725;41.994;21.458;2022-10-17T00:59:22;46.95;;;24.13;;
52316;SDS011;38725;41.994;21.458;2022-10-17T01:01:53;47.35;;;25.15;;
52316;SDS011;38725;41.994;21.458;2022-10-17T01:04:21;45.83;;;22.73;;
52316;SDS011;38725;41.994;21.458;2022-10-17T01:06:47;44.95;;;23.30;;
52316;SDS011;38725;41.994;21.458;2022-10-17T01:09:13;45.75;;;24.23;;
52316;SDS011;38725;41.994;21.458;2022-10-17T01:11:51;47.38;;;23.83;;
52316;SDS011;38725;41.994;21.458;2022-10-17T01:16:57;44.63;;;23.45;;
52316;SDS011;38725;41.994;21.458;2022-10-17T01:19:32;44.78;;;23.25;;
52316;SDS011;38725;41.994;21.458;2022-10-17T01:34:40;43.53;;;22.13;;
52316;SDS011;38725;41.994;21.458;2022-10-17T01:42:35;43.85;;;22.70;;
52316;SDS011;38725;41.994;21.458;2022-10-17T01:47:29;39.97;;;22.08;;
52316;SDS011;38725;41.994;21.458;2022-10-17T01:50:58;41.60;;;22.30;;
52316;SDS011;38725;41.994;21.458;2022-10-17T01:52:52;39.88;;;21.05;;
52316;SDS011;38725;41.994;21.458;2022-10-17T01:55:22;36.90;;;21.98;;
52316;SDS011;38725;41.994;21.458;2022-10-17T01:57:50;43.63;;;21.65;;
52316;SDS011;38725;41.994;21.458;2022-10-17T02:00:18;40.40;;;22.02;;
52316;SDS011;38725;41.994;21.458;2022-10-17T02:02:45;48.13;;;23.42;;
52316;SDS011;38725;41.994;21.458;2022-10-17T02:05:12;42.22;;;22.55;;
52316;SDS011;38725;41.994;21.458;2022-10-17T02:07:41;40.60;;;21.15;;
52316;SDS011;38725;41.994;21.458;2022-10-17T02:10:16;38.08;;;20.52;;
52316;SDS011;38725;41.994;21.458;2022-10-17T02:12:51;41.45;;;20.52;;
52316;SDS011;38725;41.994;21.458;2022-10-17T02:25:20;44.33;;;22.50;;
52316;SDS011;38725;41.994;21.458;2022-10-17T02:28:05;38.60;;;21.10;;
52316;SDS011;38725;41.994;21.458;2022-10-17T02:30:49;40.80;;;19.80;;
52316;SDS011;38725;41.994;21.458;2022-10-17T02:33:17;39.47;;;20.65;;
52316;SDS011;38725;41.994;21.458;2022-10-17T02:35:45;39.28;;;19.60;;
52316;SDS011;38725;41.994;21.458;2022-10-17T02:38:11;36.55;;;19.27;;
52316;SDS011;38725;41.994;21.458;2022-10-17T02:40:38;34.65;;;19.60;;
52316;SDS011;38725;41.994;21.458;2022-10-17T02:43:05;33.08;;;19.58;;
52316;SDS011;38725;41.994;21.458;2022-10-17T02:45:32;34.20;;;18.33;;
52316;SDS011;38725;41.994;21.458;2022-10-17T02:49:01;38.63;;;18.85;;
52316;SDS011;38725;41.994;21.458;2022-10-17T02:56:13;32.30;;;17.58;;
52316;SDS011;38725;41.994;21.458;2022-10-17T02:58:41;38.13;;;18.35;;
52316;SDS011;38725;41.994;21.458;2022-10-17T03:01:07;39.85;;;18.92;;
52316;SDS011;38725;41.994;21.458;2022-10-17T03:03:34;35.85;;;18.60;;
52316;SDS011;38725;41.994;21.458;2022-10-17T03:06:00;33.53;;;18.35;;
52316;SDS011;38725;41.994;21.458;2022-10-17T03:08:26;34.92;;;18.15;;
52316;SDS011;38725;41.994;21.458;2022-10-17T03:10:52;38.08;;;17.77;;
52316;SDS011;38725;41.994;21.458;2022-10-17T03:13:18;39.55;;;18.60;;
52316;SDS011;38725;41.994;21.458;2022-10-17T03:15:44;32.92;;;17.92;;
52316;SDS011;38725;41.994;21.458;2022-10-17T03:18:10;38.58;;;18.77;;
52316;SDS011;38725;41.994;21.458;2022-10-17T03:20:36;39.15;;;18.17;;
52316;SDS011;38725;41.994;21.458;2022-10-17T03:23:02;36.30;;;18.33;;
52316;SDS011;38725;41.994;21.458;2022-10-17T03:25:28;32.97;;;17.75;;
52316;SDS011;38725;41.994;21.458;2022-10-17T03:27:56;32.17;;;17.73;;
52316;SDS011;38725;41.994;21.458;2022-10-17T03:30:23;31.50;;;17.38;;
52316;SDS011;38725;41.994;21.458;2022-10-17T03:32:49;36.53;;;17.77;;
52316;SDS011;38725;41.994;21.458;2022-10-17T03:35:15;35.38;;;16.73;;
52316;SDS011;38725;41.994;21.458;2022-10-17T03:37:41;34.53;;;16.33;;
52316;SDS011;38725;41.994;21.458;2022-10-17T03:40:08;35.90;;;16.67;;
52316;SDS011;38725;41.994;21.458;2022-10-17T03:42:34;33.17;;;16.90;;
52316;SDS011;38725;41.994;21.458;2022-10-17T03:45:00;30.02;;;17.52;;
52316;SDS011;38725;41.994;21.458;2022-10-17T03:47:27;29.92;;;16.90;;
52316;SDS011;38725;41.994;21.458;2022-10-17T03:49:53;30.13;;;17.38;;
52316;SDS011;38725;41.994;21.458;2022-10-17T03:52:19;32.42;;;17.08;;
52316;SDS011;38725;41.994;21.458;2022-10-17T03:54:45;30.58;;;16.90;;
52316;SDS011;38725;41.994;21.458;2022-10-17T03:57:11;32.90;;;16.55;;
52316;SDS011;38725;41.994;21.458;2022-10-17T03:59:37;31.50;;;17.23;;
52316;SDS011;38725;41.994;21.458;2022-10-17T04:02:03;41.60;;;18.23;;
52316;SDS011;38725;41.994;21.458;2022-10-17T04:04:29;34.03;;;17.85;;
52316;SDS011;38725;41.994;21.458;2022-10-17T04:06:55;29.08;;;17.77;;
52316;SDS011;38725;41.994;21.458;2022-10-17T04:09:21;34.83;;;17.25;;
52316;SDS011;38725;41.994;21.458;2022-10-17T04:11:47;32.03;;;17.88;;
52316;SDS011;38725;41.994;21.458;2022-10-17T04:14:13;30.13;;;17.25;;
52316;SDS011;38725;41.994;21.458;2022-10-17T04:16:39;35.38;;;18.48;;
52316;SDS011;38725;41.994;21.458;2022-10-17T04:19:05;32.00;;;17.48;;
52316;SDS011;38725;41.994;21.458;2022-10-17T04:21:31;29.27;;;15.75;;
52316;SDS011;38725;41.994;21.458;2022-10-17T04:23:58;30.33;;;16.00;;
52316;SDS011;38725;41.994;21.458;2022-10-17T04:26:24;29.48;;;15.93;;
52316;SDS011;38725;41.994;21.458;2022-10-17T04:28:51;33.90;;;17.65;;
52316;SDS011;38725;41.994;21.458;2022-10-17T04:31:17;34.85;;;18.65;;
52316;SDS011;38725;41.994;21.458;2022-10-17T04:33:45;36.25;;;20.88;;
52316;SDS011;38725;41.994;21.458;2022-10-17T04:36:12;36.38;;;19.80;;
52316;SDS011;38725;41.994;21.458;2022-10-17T04:38:38;33.65;;;18.48;;
52316;SDS011;38725;41.994;21.458;2022-10-17T04:41:06;31.80;;;17.70;;
52316;SDS011;38725;41.994;21.458;2022-10-17T04:43:33;32.03;;;17.25;;
52316;SDS011;38725;41.994;21.458;2022-10-17T04:46:01;34.47;;;16.92;;
52316;SDS011;38725;41.994;21.458;2022-10-17T04:48:27;30.48;;;15.85;;
52316;SDS011;38725;41.994;21.458;2022-10-17T04:53:20;37.60;;;19.88;;
52316;SDS011;38725;41.994;21.458;2022-10-17T04:55:46;36.75;;;19.63;;
52316;SDS011;38725;41.994;21.458;2022-10-17T04:58:12;34.30;;;19.40;;
52316;SDS011;38725;41.994;21.458;2022-10-17T05:00:38;38.50;;;18.27;;
52316;SDS011;38725;41.994;21.458;2022-10-17T05:03:04;34.75;;;17.10;;
52316;SDS011;38725;41.994;21.458;2022-10-17T05:05:30;29.83;;;15.95;;
52316;SDS011;38725;41.994;21.458;2022-10-17T05:07:56;33.53;;;16.27;;
52316;SDS011;38725;41.994;21.458;2022-10-17T05:10:23;31.60;;;15.75;;
52316;SDS011;38725;41.994;21.458;2022-10-17T05:12:49;28.38;;;14.65;;
52316;SDS011;38725;41.994;21.458;2022-10-17T05:15:15;27.85;;;14.38;;
52316;SDS011;38725;41.994;21.458;2022-10-17T05:17:41;31.92;;;15.13;;
52316;SDS011;38725;41.994;21.458;2022-10-17T05:20:07;28.65;;;14.98;;
52316;SDS011;38725;41.994;21.458;2022-10-17T05:22:34;32.83;;;14.45;;
52316;SDS011;38725;41.994;21.458;2022-10-17T05:25:00;30.10;;;14.90;;
52316;SDS011;38725;41.994;21.458;2022-10-17T05:27:26;24.60;;;14.20;;
52316;SDS011;38725;41.994;21.458;2022-10-17T05:29:52;31.45;;;16.13;;
52316;SDS011;38725;41.994;21.458;2022-10-17T05:32:18;33.20;;;16.15;;
52316;SDS011;38725;41.994;21.458;2022-10-17T05:34:44;30.33;;;16.67;;
52316;SDS011;38725;41.994;21.458;2022-10-17T05:37:10;35.35;;;19.15;;
52316;SDS011;38725;41.994;21.458;2022-10-17T05:39:36;33.08;;;17.77;;
52316;SDS011;38725;41.994;21.458;2022-10-17T05:42:02;35.05;;;19.45;;
52316;SDS011;38725;41.994;21.458;2022-10-17T05:44:28;39.28;;;18.60;;
52316;SDS011;38725;41.994;21.458;2022-10-17T05:46:54;33.88;;;18.48;;
52316;SDS011;38725;41.994;21.458;2022-10-17T05:49:20;33.53;;;18.00;;
52316;SDS011;38725;41.994;21.458;2022-10-17T05:51:46;30.33;;;16.75;;
52316;SDS011;38725;41.994;21.458;2022-10-17T05:54:12;32.50;;;15.93;;
52316;SDS011;38725;41.994;21.458;2022-10-17T05:56:38;32.03;;;16.17;;
52316;SDS011;38725;41.994;21.458;2022-10-17T05:59:04;29.70;;;14.57;;
52316;SDS011;38725;41.994;21.458;2022-10-17T06:01:30;25.17;;;15.05;;
52316;SDS011;38725;41.994;21.458;2022-10-17T06:03:56;25.55;;;14.13;;
52316;SDS011;38725;41.994;21.458;2022-10-17T06:06:22;26.48;;;13.98;;
52316;SDS011;38725;41.994;21.458;2022-10-17T06:08:48;20.67;;;13.13;;
52316;SDS011;38725;41.994;21.458;2022-10-17T06:11:14;28.13;;;14.77;;
52316;SDS011;38725;41.994;21.458;2022-10-17T06:13:40;22.27;;;12.30;;
52316;SDS011;38725;41.994;21.458;2022-10-17T06:16:06;25.63;;;13.10;;
52316;SDS011;38725;41.994;21.458;2022-10-17T06:18:33;24.23;;;14.25;;
52316;SDS011;38725;41.994;21.458;2022-10-17T06:21:03;27.83;;;13.50;;
52316;SDS011;38725;41.994;21.458;2022-10-17T06:23:29;37.25;;;15.23;;
52316;SDS011;38725;41.994;21.458;2022-10-17T06:25:59;30.00;;;14.65;;
52316;SDS011;38725;41.994;21.458;2022-10-17T06:28:25;49.42;;;17.83;;
52316;SDS011;38725;41.994;21.458;2022-10-17T06:30:51;47.08;;;20.17;;
52316;SDS011;38725;41.994;21.458;2022-10-17T06:33:17;32.13;;;17.00;;
52316;SDS011;38725;41.994;21.458;2022-10-17T06:35:49;36.70;;;17.40;;
52316;SDS011;38725;41.994;21.458;2022-10-17T06:38:16;32.92;;;15.90;;
52316;SDS011;38725;41.994;21.458;2022-10-17T06:40:42;29.95;;;15.18;;
52316;SDS011;38725;41.994;21.458;2022-10-17T06:43:08;28.33;;;15.40;;
52316;SDS011;38725;41.994;21.458;2022-10-17T06:45:34;32.30;;;16.50;;
52316;SDS011;38725;41.994;21.458;2022-10-17T06:48:00;32.40;;;15.43;;
52316;SDS011;38725;41.994;21.458;2022-10-17T06:50:27;27.55;;;15.00;;
52316;SDS011;38725;41.994;21.458;2022-10-17T06:52:53;37.30;;;18.73;;
52316;SDS011;38725;41.994;21.458;2022-10-17T06:55:19;32.35;;;21.75;;
52316;SDS011;38725;41.994;21.458;2022-10-17T06:57:45;36.00;;;19.90;;
52316;SDS011;38725;41.994;21.458;2022-10-17T07:00:11;32.25;;;18.58;;
52316;SDS011;38725;41.994;21.458;2022-10-17T07:02:37;25.92;;;17.92;;
52316;SDS011;38725;41.994;21.458;2022-10-17T07:05:03;25.65;;;15.55;;
52316;SDS011;38725;41.994;21.458;2022-10-17T07:07:30;24.80;;;16.75;;
52316;SDS011;38725;41.994;21.458;2022-10-17T07:09:56;32.03;;;14.57;;
52316;SDS011;38725;41.994;21.458;2022-10-17T07:12:23;24.73;;;14.38;;
52316;SDS011;38725;41.994;21.458;2022-10-17T07:14:49;25.75;;;14.20;;
52316;SDS011;38725;41.994;21.458;2022-10-17T07:17:15;25.23;;;13.55;;
52316;SDS011;38725;41.994;21.458;2022-10-17T07:19:42;17.75;;;13.27;;
52316;SDS011;38725;41.994;21.458;2022-10-17T07:22:09;21.42;;;12.52;;
52316;SDS011;38725;41.994;21.458;2022-10-17T07:24:35;23.30;;;12.10;;
52316;SDS011;38725;41.994;21.458;2022-10-17T07:27:01;23.08;;;12.40;;
52316;SDS011;38725;41.994;21.458;2022-10-17T07:29:27;19.70;;;12.20;;
52316;SDS011;38725;41.994;21.458;2022-10-17T07:31:53;23.55;;;13.18;;
52316;SDS011;38725;41.994;21.458;2022-10-17T07:34:19;22.35;;;13.25;;
52316;SDS011;38725;41.994;21.458;2022-10-17T07:36:45;19.63;;;13.32;;
52316;SDS011;38725;41.994;21.458;2022-10-17T07:39:12;23.50;;;14.27;;
52316;SDS011;38725;41.994;21.458;2022-10-17T07:41:38;23.63;;;13.18;;
52316;SDS011;38725;41.994;21.458;2022-10-17T07:44:04;26.08;;;14.05;;
52316;SDS011;38725;41.994;21.458;2022-10-17T07:46:30;25.23;;;14.70;;
52316;SDS011;38725;41.994;21.458;2022-10-17T07:48:56;22.95;;;13.82;;
52316;SDS011;38725;41.994;21.458;2022-10-17T07:51:22;24.00;;;14.45;;
52316;SDS011;38725;41.994;21.458;2022-10-17T07:53:48;25.60;;;15.73;;
52316;SDS011;38725;41.994;21.458;2022-10-17T07:56:14;26.75;;;14.90;;
52316;SDS011;38725;41.994;21.458;2022-10-17T07:58:41;30.83;;;17.10;;
52316;SDS011;38725;41.994;21.458;2022-10-17T08:01:08;29.13;;;15.38;;
52316;SDS011;38725;41.994;21.458;2022-10-17T08:03:38;25.05;;;16.10;;
52316;SDS011;38725;41.994;21.458;2022-10-17T08:06:04;23.23;;;15.52;;
52316;SDS011;38725;41.994;21.458;2022-10-17T08:08:30;20.77;;;15.38;;
52316;SDS011;38725;41.994;21.458;2022-10-17T08:11:00;26.30;;;15.70;;
52316;SDS011;38725;41.994;21.458;2022-10-17T08:13:26;29.73;;;15.15;;
52316;SDS011;38725;41.994;21.458;2022-10-17T08:15:53;25.08;;;15.18;;
52316;SDS011;38725;41.994;21.458;2022-10-17T08:18:19;23.90;;;15.30;;
52316;SDS011;38725;41.994;21.458;2022-10-17T08:20:45;27.70;;;15.82;;
52316;SDS011;38725;41.994;21.458;2022-10-17T08:23:12;23.45;;;15.90;;
52316;SDS011;38725;41.994;21.458;2022-10-17T08:27:44;28.42;;;17.17;;
52316;SDS011;38725;41.994;21.458;2022-10-17T08:30:10;27.42;;;16.80;;
52316;SDS011;38725;41.994;21.458;2022-10-17T08:32:37;27.40;;;16.52;;
52316;SDS011;38725;41.994;21.458;2022-10-17T08:35:03;27.08;;;17.25;;
52316;SDS011;38725;41.994;21.458;2022-10-17T08:37:29;28.30;;;17.58;;
52316;SDS011;38725;41.994;21.458;2022-10-17T08:39:56;28.23;;;17.23;;
52316;SDS011;38725;41.994;21.458;2022-10-17T08:47:39;25.90;;;16.17;;
52316;SDS011;38725;41.994;21.458;2022-10-17T08:50:08;26.52;;;17.00;;
52316;SDS011;38725;41.994;21.458;2022-10-17T09:03:54;25.02;;;16.08;;
52316;SDS011;38725;41.994;21.458;2022-10-17T09:06:25;28.15;;;16.95;;
52316;SDS011;38725;41.994;21.458;2022-10-17T09:11:52;25.58;;;15.65;;
52316;SDS011;38725;41.994;21.458;2022-10-17T09:14:25;20.40;;;13.55;;
52316;SDS011;38725;41.994;21.458;2022-10-17T09:19:23;22.52;;;11.93;;
52316;SDS011;38725;41.994;21.458;2022-10-17T09:22:07;22.83;;;13.88;;
52316;SDS011;38725;41.994;21.458;2022-10-17T09:27:00;29.73;;;13.80;;
52316;SDS011;38725;41.994;21.458;2022-10-17T09:29:28;23.77;;;13.18;;
52316;SDS011;38725;41.994;21.458;2022-10-17T09:32:04;18.50;;;12.00;;
52316;SDS011;38725;41.994;21.458;2022-10-17T09:34:35;21.10;;;11.93;;
52316;SDS011;38725;41.994;21.458;2022-10-17T09:37:01;20.95;;;11.80;;
52316;SDS011;38725;41.994;21.458;2022-10-17T09:39:28;16.25;;;12.48;;
52316;SDS011;38725;41.994;21.458;2022-10-17T09:41:58;17.42;;;12.57;;
52316;SDS011;38725;41.994;21.458;2022-10-17T09:44:29;18.73;;;11.95;;
52316;SDS011;38725;41.994;21.458;2022-10-17T09:49:32;14.15;;;9.60;;
52316;SDS011;38725;41.994;21.458;2022-10-17T09:51:59;15.52;;;10.25;;
52316;SDS011;38725;41.994;21.458;2022-10-17T09:54:27;16.23;;;11.63;;
52316;SDS011;38725;41.994;21.458;2022-10-17T09:59:30;17.48;;;11.65;;
52316;SDS011;38725;41.994;21.458;2022-10-17T10:04:51;18.70;;;12.15;;
52316;SDS011;38725;41.994;21.458;2022-10-17T10:07:18;18.70;;;11.73;;
52316;SDS011;38725;41.994;21.458;2022-10-17T10:09:45;19.75;;;13.05;;
52316;SDS011;38725;41.994;21.458;2022-10-17T10:12:16;17.50;;;10.23;;
52316;SDS011;38725;41.994;21.458;2022-10-17T10:14:43;19.33;;;11.18;;
52316;SDS011;38725;41.994;21.458;2022-10-17T10:17:55;20.63;;;9.85;;
52316;SDS011;38725;41.994;21.458;2022-10-17T10:19:56;14.40;;;9.80;;
52316;SDS011;38725;41.994;21.458;2022-10-17T10:22:22;18.17;;;10.25;;
52316;SDS011;38725;41.994;21.458;2022-10-17T10:25:05;14.00;;;9.13;;
52316;SDS011;38725;41.994;21.458;2022-10-17T10:27:31;16.02;;;9.02;;
52316;SDS011;38725;41.994;21.458;2022-10-17T10:29:57;13.48;;;8.45;;
52316;SDS011;38725;41.994;21.458;2022-10-17T10:32:24;15.57;;;7.68;;
52316;SDS011;38725;41.994;21.458;2022-10-17T10:34:55;24.58;;;8.05;;
52316;SDS011;38725;41.994;21.458;2022-10-17T10:37:22;12.27;;;7.75;;
52316;SDS011;38725;41.994;21.458;2022-10-17T10:42:29;8.70;;;6.32;;
52316;SDS011;38725;41.994;21.458;2022-10-17T10:45:18;13.65;;;6.22;;
52316;SDS011;38725;41.994;21.458;2022-10-17T10:47:49;8.25;;;6.03;;
52316;SDS011;38725;41.994;21.458;2022-10-17T10:50:33;17.98;;;6.07;;
52316;SDS011;38725;41.994;21.458;2022-10-17T10:56:19;8.85;;;5.55;;
52316;SDS011;38725;41.994;21.458;2022-10-17T11:00:52;7.07;;;4.60;;
52316;SDS011;38725;41.994;21.458;2022-10-17T11:03:28;6.85;;;4.30;;
52316;SDS011;38725;41.994;21.458;2022-10-17T11:05:58;4.78;;;3.95;;
52316;SDS011;38725;41.994;21.458;2022-10-17T11:08:27;7.43;;;3.90;;
52316;SDS011;38725;41.994;21.458;2022-10-17T11:11:29;5.25;;;4.10;;
52316;SDS011;38725;41.994;21.458;2022-10-17T11:14:09;4.82;;;4.03;;
52316;SDS011;38725;41.994;21.458;2022-10-17T11:16:39;8.02;;;4.10;;
52316;SDS011;38725;41.994;21.458;2022-10-17T11:21:42;6.05;;;3.55;;
52316;SDS011;38725;41.994;21.458;2022-10-17T11:24:27;6.47;;;3.60;;
52316;SDS011;38725;41.994;21.458;2022-10-17T11:26:58;6.80;;;3.85;;
52316;SDS011;38725;41.994;21.458;2022-10-17T11:29:28;6.78;;;3.38;;
52316;SDS011;38725;41.994;21.458;2022-10-17T11:31:55;6.57;;;3.50;;
52316;SDS011;38725;41.994;21.458;2022-10-17T11:34:24;3.88;;;2.63;;
52316;SDS011;38725;41.994;21.458;2022-10-17T11:36:51;3.70;;;2.88;;
52316;SDS011;38725;41.994;21.458;2022-10-17T11:39:20;22.98;;;5.72;;
52316;SDS011;38725;41.994;21.458;2022-10-17T11:41:58;4.03;;;2.80;;
52316;SDS011;38725;41.994;21.458;2022-10-17T11:46:56;5.18;;;2.88;;
52316;SDS011;38725;41.994;21.458;2022-10-17T11:49:24;8.10;;;2.60;;
52316;SDS011;38725;41.994;21.458;2022-10-17T11:51:59;8.77;;;2.58;;
52316;SDS011;38725;41.994;21.458;2022-10-17T12:02:13;4.35;;;2.72;;
52316;SDS011;38725;41.994;21.458;2022-10-17T12:07:47;11.32;;;2.95;;
52316;SDS011;38725;41.994;21.458;2022-10-17T12:12:43;4.95;;;2.80;;
52316;SDS011;38725;41.994;21.458;2022-10-17T12:17:39;5.22;;;2.75;;
52316;SDS011;38725;41.994;21.458;2022-10-17T12:22:47;4.30;;;3.15;;
52316;SDS011;38725;41.994;21.458;2022-10-17T12:25:17;5.53;;;3.00;;
52316;SDS011;38725;41.994;21.458;2022-10-17T12:27:45;6.38;;;3.17;;
52316;SDS011;38725;41.994;21.458;2022-10-17T12:32:51;5.65;;;3.13;;
52316;SDS011;38725;41.994;21.458;2022-10-17T12:35:19;7.25;;;3.10;;
52316;SDS011;38725;41.994;21.458;2022-10-17T12:41:15;8.02;;;3.05;;
52316;SDS011;38725;41.994;21.458;2022-10-17T12:56:29;7.43;;;3.70;;
52316;SDS011;38725;41.994;21.458;2022-10-17T12:58:56;5.82;;;3.53;;
52316;SDS011;38725;41.994;21.458;2022-10-17T13:01:27;5.57;;;3.42;;
52316;SDS011;38725;41.994;21.458;2022-10-17T13:03:53;5.95;;;3.17;;
52316;SDS011;38725;41.994;21.458;2022-10-17T13:06:22;9.50;;;3.80;;
52316;SDS011;38725;41.994;21.458;2022-10-17T13:08:49;5.70;;;3.80;;
52316;SDS011;38725;41.994;21.458;2022-10-17T13:11:21;5.32;;;3.53;;
52316;SDS011;38725;41.994;21.458;2022-10-17T13:13:48;3.92;;;3.30;;
52316;SDS011;38725;41.994;21.458;2022-10-17T13:18:54;6.05;;;3.35;;
52316;SDS011;38725;41.994;21.458;2022-10-17T13:21:20;4.65;;;3.25;;
52316;SDS011;38725;41.994;21.458;2022-10-17T13:23:46;6.40;;;3.05;;
52316;SDS011;38725;41.994;21.458;2022-10-17T13:26:16;4.30;;;2.88;;
52316;SDS011;38725;41.994;21.458;2022-10-17T13:28:44;5.90;;;3.20;;
52316;SDS011;38725;41.994;21.458;2022-10-17T13:31:26;6.68;;;3.47;;
52316;SDS011;38725;41.994;21.458;2022-10-17T13:33:57;4.25;;;2.83;;
52316;SDS011;38725;41.994;21.458;2022-10-17T13:36:23;4.68;;;2.90;;
52316;SDS011;38725;41.994;21.458;2022-10-17T13:38:50;6.72;;;3.17;;
52316;SDS011;38725;41.994;21.458;2022-10-17T13:41:16;4.00;;;2.88;;
52316;SDS011;38725;41.994;21.458;2022-10-17T13:43:43;5.20;;;2.95;;
52316;SDS011;38725;41.994;21.458;2022-10-17T13:46:16;4.47;;;2.67;;
52316;SDS011;38725;41.994;21.458;2022-10-17T13:48:45;8.27;;;3.17;;
52316;SDS011;38725;41.994;21.458;2022-10-17T13:51:13;5.53;;;3.08;;
52316;SDS011;38725;41.994;21.458;2022-10-17T13:53:39;8.43;;;3.53;;
52316;SDS011;38725;41.994;21.458;2022-10-17T13:58:46;5.97;;;2.97;;
52316;SDS011;38725;41.994;21.458;2022-10-17T14:01:13;4.60;;;2.60;;
52316;SDS011;38725;41.994;21.458;2022-10-17T14:03:40;5.63;;;3.20;;
52316;SDS011;38725;41.994;21.458;2022-10-17T14:08:35;7.75;;;3.40;;
52316;SDS011;38725;41.994;21.458;2022-10-17T14:11:06;3.38;;;2.58;;
52316;SDS011;38725;41.994;21.458;2022-10-17T14:13:37;4.93;;;3.22;;
52316;SDS011;38725;41.994;21.458;2022-10-17T14:16:03;3.80;;;2.67;;
52316;SDS011;38725;41.994;21.458;2022-10-17T14:18:30;5.90;;;2.97;;
52316;SDS011;38725;41.994;21.458;2022-10-17T14:20:58;4.95;;;3.00;;
52316;SDS011;38725;41.994;21.458;2022-10-17T14:23:30;4.55;;;2.60;;
52316;SDS011;38725;41.994;21.458;2022-10-17T14:26:29;5.60;;;3.42;;
52316;SDS011;38725;41.994;21.458;2022-10-17T14:31:35;5.85;;;3.30;;
52316;SDS011;38725;41.994;21.458;2022-10-17T14:34:02;8.10;;;3.22;;
52316;SDS011;38725;41.994;21.458;2022-10-17T14:36:30;6.45;;;3.22;;
52316;SDS011;38725;41.994;21.458;2022-10-17T14:38:56;5.82;;;2.85;;
52316;SDS011;38725;41.994;21.458;2022-10-17T14:41:25;9.23;;;3.38;;
52316;SDS011;38725;41.994;21.458;2022-10-17T14:43:53;5.28;;;3.28;;
52316;SDS011;38725;41.994;21.458;2022-10-17T14:46:19;10.45;;;3.58;;
52316;SDS011;38725;41.994;21.458;2022-10-17T14:48:47;9.43;;;3.20;;
52316;SDS011;38725;41.994;21.458;2022-10-17T14:51:17;4.47;;;3.13;;
52316;SDS011;38725;41.994;21.458;2022-10-17T14:53:44;4.35;;;3.10;;
52316;SDS011;38725;41.994;21.458;2022-10-17T14:56:24;16.88;;;3.42;;
52316;SDS011;38725;41.994;21.458;2022-10-17T14:58:51;3.60;;;2.42;;
52316;SDS011;38725;41.994;21.458;2022-10-17T15:01:17;5.43;;;2.85;;
52316;SDS011;38725;41.994;21.458;2022-10-17T15:03:43;4.85;;;3.20;;
52316;SDS011;38725;41.994;21.458;2022-10-17T15:06:19;4.78;;;3.00;;
52316;SDS011;38725;41.994;21.458;2022-10-17T15:08:46;5.05;;;3.25;;
52316;SDS011;38725;41.994;21.458;2022-10-17T15:11:12;4.60;;;3.30;;
52316;SDS011;38725;41.994;21.458;2022-10-17T15:13:38;5.65;;;3.47;;
52316;SDS011;38725;41.994;21.458;2022-10-17T15:18:48;4.90;;;3.30;;
52316;SDS011;38725;41.994;21.458;2022-10-17T15:21:16;8.85;;;3.50;;
52316;SDS011;38725;41.994;21.458;2022-10-17T15:23:42;10.60;;;3.60;;
52316;SDS011;38725;41.994;21.458;2022-10-17T15:26:10;14.82;;;3.83;;
52316;SDS011;38725;41.994;21.458;2022-10-17T15:28:37;23.73;;;4.57;;
52316;SDS011;38725;41.994;21.458;2022-10-17T15:31:03;11.43;;;3.83;;
52316;SDS011;38725;41.994;21.458;2022-10-17T15:33:30;18.75;;;4.55;;
52316;SDS011;38725;41.994;21.458;2022-10-17T15:35:56;27.92;;;5.57;;
52316;SDS011;38725;41.994;21.458;2022-10-17T15:38:22;11.63;;;3.80;;
52316;SDS011;38725;41.994;21.458;2022-10-17T15:40:48;15.13;;;4.60;;
52316;SDS011;38725;41.994;21.458;2022-10-17T15:43:16;51.10;;;8.82;;
52316;SDS011;38725;41.994;21.458;2022-10-17T15:45:42;9.38;;;4.30;;
52316;SDS011;38725;41.994;21.458;2022-10-17T15:48:13;17.30;;;4.82;;
52316;SDS011;38725;41.994;21.458;2022-10-17T15:50:40;9.70;;;5.03;;
52316;SDS011;38725;41.994;21.458;2022-10-17T15:53:15;17.48;;;6.28;;
52316;SDS011;38725;41.994;21.458;2022-10-17T15:55:41;15.23;;;5.22;;
52316;SDS011;38725;41.994;21.458;2022-10-17T15:58:10;10.73;;;5.43;;
52316;SDS011;38725;41.994;21.458;2022-10-17T16:00:37;16.35;;;7.03;;
52316;SDS011;38725;41.994;21.458;2022-10-17T16:03:03;12.73;;;5.30;;
52316;SDS011;38725;41.994;21.458;2022-10-17T16:05:29;16.65;;;6.45;;
52316;SDS011;38725;41.994;21.458;2022-10-17T16:07:55;17.25;;;7.97;;
52316;SDS011;38725;41.994;21.458;2022-10-17T16:10:22;15.52;;;6.95;;
52316;SDS011;38725;41.994;21.458;2022-10-17T16:12:49;16.15;;;7.78;;
52316;SDS011;38725;41.994;21.458;2022-10-17T16:15:19;14.95;;;7.00;;
52316;SDS011;38725;41.994;21.458;2022-10-17T16:17:52;20.95;;;8.52;;
52316;SDS011;38725;41.994;21.458;2022-10-17T16:20:18;20.15;;;7.68;;
52316;SDS011;38725;41.994;21.458;2022-10-17T16:22:45;18.45;;;7.78;;
52316;SDS011;38725;41.994;21.458;2022-10-17T16:25:21;15.52;;;7.97;;
52316;SDS011;38725;41.994;21.458;2022-10-17T16:27:48;19.52;;;7.85;;
52316;SDS011;38725;41.994;21.458;2022-10-17T16:30:15;23.05;;;8.90;;
52316;SDS011;38725;41.994;21.458;2022-10-17T16:32:41;17.05;;;8.85;;
52316;SDS011;38725;41.994;21.458;2022-10-17T16:35:07;23.38;;;9.20;;
52316;SDS011;38725;41.994;21.458;2022-10-17T16:37:33;26.45;;;9.57;;
52316;SDS011;38725;41.994;21.458;2022-10-17T16:40:00;40.90;;;10.85;;
52316;SDS011;38725;41.994;21.458;2022-10-17T16:42:26;26.95;;;8.75;;